createdAt,value
2022-10-01T00:04:09.510Z,4.07
2022-10-01T00:09:34.343Z,5.38
2022-10-01T00:14:56.082Z,4.65
2022-10-01T00:20:18.080Z,4.57
2022-10-01T00:25:40.804Z,4.13
2022-10-01T00:31:02.598Z,3.95
2022-10-01T00:36:25.537Z,3.97
2022-10-01T00:41:48.040Z,4.13
2022-10-01T00:47:28.529Z,4.15
2022-10-01T00:53:01.073Z,4.30
2022-10-01T00:58:24.788Z,3.90
2022-10-01T01:03:47.011Z,3.97
2022-10-01T01:09:08.799Z,3.90
2022-10-01T01:14:44.869Z,4.50
2022-10-01T01:20:22.229Z,4.60
2022-10-01T01:25:59.919Z,4.05
2022-10-01T01:31:32.802Z,4.18
2022-10-01T01:37:01.447Z,4.22
2022-10-01T01:42:30.004Z,3.80
2022-10-01T01:47:56.069Z,4.80
2022-10-01T01:53:20.203Z,5.18
2022-10-01T01:58:42.009Z,4.50
2022-10-01T02:04:08.099Z,3.80
2022-10-01T02:10:06.972Z,3.15
2022-10-01T02:15:37.203Z,3.53
2022-10-01T02:21:20.109Z,3.40
2022-10-01T02:26:44.846Z,3.10
2022-10-01T02:32:08.402Z,3.15
2022-10-01T02:37:30.395Z,3.10
2022-10-01T02:42:55.777Z,3.38
2022-10-01T02:48:18.190Z,3.05
2022-10-01T02:53:49.094Z,3.08
2022-10-01T02:59:10.809Z,2.90
2022-10-01T03:04:32.694Z,3.22
2022-10-01T03:09:54.714Z,3.00
2022-10-01T03:15:19.143Z,3.13
2022-10-01T03:20:40.862Z,2.72
2022-10-01T03:26:02.602Z,3.25
2022-10-01T03:31:24.399Z,2.85
2022-10-01T03:36:47.011Z,2.97
2022-10-01T03:42:08.721Z,2.55
2022-10-01T03:47:30.450Z,2.70
2022-10-01T03:52:52.135Z,2.83
2022-10-01T03:58:13.864Z,2.00
2022-10-01T04:03:35.566Z,2.13
2022-10-01T04:08:57.295Z,2.17
2022-10-01T04:14:18.987Z,2.28
2022-10-01T04:19:40.702Z,2.47
2022-10-01T04:25:02.700Z,1.88
2022-10-01T04:30:26.624Z,2.20
2022-10-01T04:35:48.323Z,2.42
2022-10-01T04:41:10.075Z,2.30
2022-10-01T04:46:31.808Z,1.75
2022-10-01T04:51:53.543Z,2.10
2022-10-01T04:57:15.261Z,1.77
2022-10-01T05:02:37.785Z,2.03
2022-10-01T05:07:59.646Z,1.60
2022-10-01T05:13:21.392Z,1.77
2022-10-01T05:18:43.513Z,1.63
2022-10-01T05:24:05.615Z,1.55
2022-10-01T05:29:27.378Z,1.75
2022-10-01T05:34:53.410Z,1.17
2022-10-01T05:40:15.582Z,1.30
2022-10-01T05:45:37.480Z,1.23
2022-10-01T05:50:59.202Z,1.40
2022-10-01T05:56:20.907Z,1.23
2022-10-01T06:01:42.718Z,1.65
2022-10-01T06:07:04.475Z,1.30
2022-10-01T06:12:26.728Z,1.42
2022-10-01T06:17:48.411Z,1.15
2022-10-01T06:23:12.384Z,1.08
2022-10-01T06:28:34.418Z,1.38
2022-10-01T06:33:56.112Z,1.30
2022-10-01T06:39:17.809Z,1.30
2022-10-01T06:44:39.535Z,1.10
2022-10-01T06:50:01.229Z,1.50
2022-10-01T06:55:26.765Z,1.70
2022-10-01T07:00:49.389Z,1.40
2022-10-01T07:06:11.400Z,1.60
2022-10-01T07:11:33.327Z,2.55
2022-10-01T07:16:55.219Z,2.10
2022-10-01T07:22:19.259Z,1.92
2022-10-01T07:27:41.147Z,1.88
2022-10-01T07:33:02.872Z,2.65
2022-10-01T07:38:24.626Z,1.98
2022-10-01T07:43:46.783Z,2.03
2022-10-01T07:49:09.219Z,2.58
2022-10-01T07:54:30.980Z,2.00
2022-10-01T07:59:55.909Z,2.33
2022-10-01T08:05:20.304Z,2.45
2022-10-01T08:10:42.060Z,2.30
2022-10-01T08:16:06.088Z,1.90
2022-10-01T08:21:28.563Z,1.98
2022-10-01T08:26:55.952Z,1.25
2022-10-01T08:32:17.973Z,1.90
2022-10-01T08:37:39.654Z,1.50
2022-10-01T08:43:10.873Z,1.70
2022-10-01T08:49:04.178Z,1.35
2022-10-01T08:54:39.265Z,1.70
2022-10-01T09:00:06.768Z,1.60
2022-10-01T09:05:37.472Z,2.00
2022-10-01T09:11:04.300Z,1.63
2022-10-01T09:16:42.297Z,1.70
2022-10-01T09:22:26.013Z,1.58
2022-10-01T09:27:48.462Z,2.10
2022-10-01T09:33:20.033Z,1.60
2022-10-01T09:38:44.648Z,1.25
2022-10-01T09:44:18.706Z,2.30
2022-10-01T09:49:46.064Z,1.55
2022-10-01T09:55:19.590Z,1.40
2022-10-01T10:00:42.327Z,1.20
2022-10-01T10:06:06.597Z,1.40
2022-10-01T10:11:31.323Z,1.95
2022-10-01T10:16:54.769Z,1.00
2022-10-01T10:22:24.750Z,1.15
2022-10-01T10:27:55.332Z,1.20
2022-10-01T10:33:20.804Z,1.25
2022-10-01T10:38:49.521Z,1.33
2022-10-01T10:44:19.541Z,1.67
2022-10-01T10:49:54.531Z,1.10
2022-10-01T10:55:22.844Z,0.70
2022-10-01T11:00:52.819Z,1.13
2022-10-01T11:06:16.991Z,1.33
2022-10-01T11:12:05.235Z,1.42
2022-10-01T11:17:55.229Z,1.00
2022-10-01T11:23:34.828Z,0.90
2022-10-01T11:29:06.379Z,0.80
2022-10-01T11:34:59.807Z,0.70
2022-10-01T11:40:28.116Z,0.73
2022-10-01T11:45:56.344Z,0.70
2022-10-01T11:51:25.096Z,0.60
2022-10-01T11:57:10.865Z,0.77
2022-10-01T12:02:58.110Z,1.00
2022-10-01T12:08:28.411Z,1.00
2022-10-01T12:13:59.215Z,1.00
2022-10-01T12:19:28.438Z,0.93
2022-10-01T12:24:50.371Z,1.00
2022-10-01T12:30:20.352Z,0.70
2022-10-01T12:36:04.701Z,0.75
2022-10-01T12:41:37.425Z,1.13
2022-10-01T12:47:21.770Z,1.10
2022-10-01T12:53:12.695Z,1.05
2022-10-01T12:59:12.687Z,1.10
2022-10-01T13:05:07.993Z,0.70
2022-10-01T13:10:59.939Z,0.93
2022-10-01T13:16:44.522Z,0.73
2022-10-01T13:22:48.614Z,0.90
2022-10-01T13:28:19.898Z,1.00
2022-10-01T13:33:41.963Z,1.35
2022-10-01T13:39:03.781Z,1.20
2022-10-01T13:44:35.105Z,0.98
2022-10-01T13:50:05.505Z,1.10
2022-10-01T13:55:30.597Z,0.90
2022-10-01T14:00:55.371Z,1.02
2022-10-01T14:06:30.549Z,0.82
2022-10-01T14:12:14.605Z,0.80
2022-10-01T14:17:37.068Z,0.80
2022-10-01T14:23:13.616Z,0.88
2022-10-01T14:29:01.484Z,1.02
2022-10-01T14:34:51.238Z,1.10
2022-10-01T14:40:18.546Z,1.35
2022-10-01T14:45:50.790Z,0.80
2022-10-01T14:51:27.536Z,0.77
2022-10-01T14:56:50.623Z,0.70
2022-10-01T15:02:24.306Z,1.20
2022-10-01T15:07:47.313Z,0.57
2022-10-01T15:13:10.370Z,0.73
2022-10-01T15:18:32.232Z,0.82
2022-10-01T15:23:54.310Z,0.75
2022-10-01T15:29:16.618Z,0.70
2022-10-01T15:34:40.390Z,0.60
2022-10-01T15:40:06.428Z,0.70
2022-10-01T15:45:28.138Z,1.08
2022-10-01T15:51:01.150Z,1.23
2022-10-01T15:56:23.915Z,1.30
2022-10-01T16:01:45.752Z,0.80
2022-10-01T16:07:19.653Z,0.63
2022-10-01T16:12:42.264Z,1.00
2022-10-01T16:18:21.914Z,1.02
2022-10-01T16:23:45.459Z,1.15
2022-10-01T16:29:19.654Z,1.20
2022-10-01T16:34:41.526Z,1.17
2022-10-01T16:40:03.227Z,1.30
2022-10-01T16:45:27.960Z,1.40
2022-10-01T16:50:52.044Z,0.93
2022-10-01T16:56:14.229Z,1.05
2022-10-01T17:01:35.936Z,1.40
2022-10-01T17:06:57.642Z,1.40
2022-10-01T17:12:19.411Z,1.00
2022-10-01T17:17:41.830Z,1.05
2022-10-01T17:23:04.791Z,1.40
2022-10-01T17:28:26.622Z,1.40
2022-10-01T17:33:51.044Z,2.30
2022-10-01T17:39:12.755Z,1.67
2022-10-01T17:44:34.460Z,2.58
2022-10-01T17:49:56.154Z,2.45
2022-10-01T17:55:19.793Z,2.42
2022-10-01T18:00:41.709Z,3.00
2022-10-01T18:06:04.048Z,2.97
2022-10-01T18:11:28.104Z,3.78
2022-10-01T18:16:49.924Z,2.78
2022-10-01T18:22:14.280Z,2.47
2022-10-01T18:27:36.107Z,2.90
2022-10-01T18:32:57.968Z,2.63
2022-10-01T18:38:29.674Z,2.40
2022-10-01T18:43:51.425Z,2.90
2022-10-01T18:49:43.458Z,2.97
2022-10-01T18:55:45.358Z,2.50
2022-10-01T19:01:40.412Z,3.00
2022-10-01T19:07:22.322Z,4.18
2022-10-01T19:13:16.045Z,2.60
2022-10-01T19:18:56.705Z,2.10
2022-10-01T19:24:23.708Z,2.53
2022-10-01T19:29:57.453Z,3.67
2022-10-01T19:35:27.584Z,4.18
2022-10-01T19:41:14.772Z,3.00
2022-10-01T19:46:45.476Z,2.42
2022-10-01T19:52:18.782Z,2.90
2022-10-01T19:57:43.544Z,2.55
2022-10-01T20:03:20.935Z,2.78
2022-10-01T20:08:52.614Z,1.95
2022-10-01T20:14:37.182Z,2.85
2022-10-01T20:20:07.746Z,2.70
2022-10-01T20:25:35.486Z,2.90
2022-10-01T20:31:23.090Z,3.50
2022-10-01T20:37:15.267Z,2.85
2022-10-01T20:42:44.105Z,3.95
2022-10-01T20:48:41.734Z,3.75
2022-10-01T20:54:10.835Z,3.17
2022-10-01T20:59:38.806Z,2.25
2022-10-01T21:05:09.147Z,3.05
2022-10-01T21:10:42.982Z,2.72
2022-10-01T21:16:45.173Z,2.70
2022-10-01T21:22:17.057Z,2.28
2022-10-01T21:28:16.312Z,2.75
2022-10-01T21:33:51.935Z,3.38
2022-10-01T21:39:50.782Z,3.22
2022-10-01T21:45:36.427Z,2.30
2022-10-01T21:51:28.665Z,2.08
2022-10-01T21:57:22.194Z,2.30
2022-10-01T22:03:32.253Z,2.20
2022-10-01T22:09:05.726Z,2.22
2022-10-01T22:14:29.516Z,4.05
2022-10-01T22:19:53.844Z,4.57
2022-10-01T22:25:15.639Z,3.58
2022-10-01T22:30:40.482Z,3.25
2022-10-01T22:36:14.841Z,2.50
2022-10-01T22:41:46.388Z,2.60
2022-10-01T22:47:26.504Z,2.83
2022-10-01T22:53:07.845Z,2.83
2022-10-01T22:58:52.809Z,2.72
2022-10-01T23:04:35.297Z,2.92
2022-10-01T23:10:01.435Z,3.05
2022-10-01T23:15:46.398Z,2.40
2022-10-01T23:21:18.695Z,2.55
2022-10-01T23:27:11.741Z,2.80
2022-10-01T23:33:02.614Z,3.00
2022-10-01T23:39:02.304Z,3.03
2022-10-01T23:44:42.159Z,3.13
2022-10-01T23:50:06.533Z,3.03
2022-10-01T23:56:01.220Z,3.55
